sensor_id;sensor_type;location;lat;lon;timestamp;temperature;humidity
26990;DHT22;14537;47.788;11.858;2024-02-23T00:00:03;5.20;99.90
26990;DHT22;14537;47.788;11.858;2024-02-23T00:02:31;5.10;99.90
26990;DHT22;14537;47.788;11.858;2024-02-23T00:04:57;5.00;99.90
26990;DHT22;14537;47.788;11.858;2024-02-23T00:07:22;5.10;99.90
26990;DHT22;14537;47.788;11.858;2024-02-23T00:09:48;5.00;99.90
26990;DHT22;14537;47.788;11.858;2024-02-23T00:12:13;5.00;99.90
26990;DHT22;14537;47.788;11.858;2024-02-23T00:14:39;5.00;99.90
26990;DHT22;14537;47.788;11.858;2024-02-23T00:17:05;5.00;99.90
26990;DHT22;14537;47.788;11.858;2024-02-23T00:19:31;5.10;99.90
26990;DHT22;14537;47.788;11.858;2024-02-23T00:21:57;5.00;99.90
26990;DHT22;14537;47.788;11.858;2024-02-23T00:24:27;5.00;99.90
26990;DHT22;14537;47.788;11.858;2024-02-23T00:26:53;5.00;99.90
26990;DHT22;14537;47.788;11.858;2024-02-23T00:29:19;5.10;99.90
26990;DHT22;14537;47.788;11.858;2024-02-23T00:31:45;5.20;99.90
26990;DHT22;14537;47.788;11.858;2024-02-23T00:34:11;5.10;99.90
26990;DHT22;14537;47.788;11.858;2024-02-23T00:36:42;5.10;99.90
26990;DHT22;14537;47.788;11.858;2024-02-23T00:39:08;5.20;99.90
26990;DHT22;14537;47.788;11.858;2024-02-23T00:41:34;5.20;99.90
26990;DHT22;14537;47.788;11.858;2024-02-23T00:44:01;5.20;99.90
26990;DHT22;14537;47.788;11.858;2024-02-23T00:46:27;5.20;99.90
26990;DHT22;14537;47.788;11.858;2024-02-23T00:48:52;5.20;99.90
26990;DHT22;14537;47.788;11.858;2024-02-23T00:51:18;5.10;99.90
26990;DHT22;14537;47.788;11.858;2024-02-23T00:53:43;5.00;99.90
26990;DHT22;14537;47.788;11.858;2024-02-23T00:56:09;5.00;99.90
26990;DHT22;14537;47.788;11.858;2024-02-23T00:58:34;5.10;99.90
26990;DHT22;14537;47.788;11.858;2024-02-23T01:01:00;5.10;99.90
26990;DHT22;14537;47.788;11.858;2024-02-23T01:03:26;5.00;99.90
26990;DHT22;14537;47.788;11.858;2024-02-23T01:05:52;5.00;99.90
26990;DHT22;14537;47.788;11.858;2024-02-23T01:08:17;4.90;99.90
26990;DHT22;14537;47.788;11.858;2024-02-23T01:10:43;5.00;99.90
26990;DHT22;14537;47.788;11.858;2024-02-23T01:13:08;5.00;99.90
26990;DHT22;14537;47.788;11.858;2024-02-23T01:15:34;4.90;99.90
26990;DHT22;14537;47.788;11.858;2024-02-23T01:18:00;4.90;99.90
26990;DHT22;14537;47.788;11.858;2024-02-23T01:20:25;5.00;99.90
26990;DHT22;14537;47.788;11.858;2024-02-23T01:22:51;5.00;99.90
26990;DHT22;14537;47.788;11.858;2024-02-23T01:25:17;5.00;99.90
26990;DHT22;14537;47.788;11.858;2024-02-23T01:27:43;5.00;99.90
26990;DHT22;14537;47.788;11.858;2024-02-23T01:30:10;5.00;99.90
26990;DHT22;14537;47.788;11.858;2024-02-23T01:32:36;5.00;99.90
26990;DHT22;14537;47.788;11.858;2024-02-23T01:35:04;5.00;99.90
26990;DHT22;14537;47.788;11.858;2024-02-23T01:37:30;5.00;99.90
26990;DHT22;14537;47.788;11.858;2024-02-23T01:39:56;5.00;99.90
26990;DHT22;14537;47.788;11.858;2024-02-23T01:42:21;5.00;99.90
26990;DHT22;14537;47.788;11.858;2024-02-23T01:44:47;5.00;99.90
26990;DHT22;14537;47.788;11.858;2024-02-23T01:47:13;5.00;99.90
26990;DHT22;14537;47.788;11.858;2024-02-23T01:49:38;5.00;99.90
26990;DHT22;14537;47.788;11.858;2024-02-23T01:52:04;5.00;99.90
26990;DHT22;14537;47.788;11.858;2024-02-23T01:54:31;5.00;99.90
26990;DHT22;14537;47.788;11.858;2024-02-23T01:56:57;5.10;99.90
26990;DHT22;14537;47.788;11.858;2024-02-23T01:59:27;5.10;99.90
26990;DHT22;14537;47.788;11.858;2024-02-23T02:01:53;5.10;99.90
26990;DHT22;14537;47.788;11.858;2024-02-23T02:04:19;5.20;99.90
26990;DHT22;14537;47.788;11.858;2024-02-23T02:06:46;5.10;99.90
26990;DHT22;14537;47.788;11.858;2024-02-23T02:09:12;5.10;99.90
26990;DHT22;14537;47.788;11.858;2024-02-23T02:11:47;5.10;99.90
26990;DHT22;14537;47.788;11.858;2024-02-23T02:14:14;5.00;99.90
26990;DHT22;14537;47.788;11.858;2024-02-23T02:16:39;5.00;99.90
26990;DHT22;14537;47.788;11.858;2024-02-23T02:19:05;5.00;99.90
26990;DHT22;14537;47.788;11.858;2024-02-23T02:21:32;5.00;99.90
26990;DHT22;14537;47.788;11.858;2024-02-23T02:23:57;5.00;99.90
26990;DHT22;14537;47.788;11.858;2024-02-23T02:26:23;5.00;99.90
26990;DHT22;14537;47.788;11.858;2024-02-23T02:28:48;4.90;99.90
26990;DHT22;14537;47.788;11.858;2024-02-23T02:31:14;4.90;99.90
26990;DHT22;14537;47.788;11.858;2024-02-23T02:33:40;4.90;99.90
26990;DHT22;14537;47.788;11.858;2024-02-23T02:36:06;4.90;99.90
26990;DHT22;14537;47.788;11.858;2024-02-23T02:38:32;5.00;99.90
26990;DHT22;14537;47.788;11.858;2024-02-23T02:41:01;5.00;99.90
26990;DHT22;14537;47.788;11.858;2024-02-23T02:43:27;5.00;99.90
26990;DHT22;14537;47.788;11.858;2024-02-23T02:45:53;5.00;99.90
26990;DHT22;14537;47.788;11.858;2024-02-23T02:48:19;5.00;99.90
26990;DHT22;14537;47.788;11.858;2024-02-23T02:50:44;4.90;99.90
26990;DHT22;14537;47.788;11.858;2024-02-23T02:53:10;4.90;99.90
26990;DHT22;14537;47.788;11.858;2024-02-23T02:55:39;4.90;99.90
26990;DHT22;14537;47.788;11.858;2024-02-23T02:58:04;4.90;99.90
26990;DHT22;14537;47.788;11.858;2024-02-23T03:00:30;4.90;99.90
26990;DHT22;14537;47.788;11.858;2024-02-23T03:02:56;4.80;99.90
26990;DHT22;14537;47.788;11.858;2024-02-23T03:05:22;4.90;99.90
26990;DHT22;14537;47.788;11.858;2024-02-23T03:07:47;4.90;99.90
26990;DHT22;14537;47.788;11.858;2024-02-23T03:10:13;4.90;99.90
26990;DHT22;14537;47.788;11.858;2024-02-23T03:12:38;5.10;99.90
26990;DHT22;14537;47.788;11.858;2024-02-23T03:15:04;5.10;99.90
26990;DHT22;14537;47.788;11.858;2024-02-23T03:17:31;5.10;99.90
26990;DHT22;14537;47.788;11.858;2024-02-23T03:19:57;5.10;99.90
26990;DHT22;14537;47.788;11.858;2024-02-23T03:22:23;5.20;99.90
26990;DHT22;14537;47.788;11.858;2024-02-23T03:24:48;5.30;99.90
26990;DHT22;14537;47.788;11.858;2024-02-23T03:27:14;5.30;99.90
26990;DHT22;14537;47.788;11.858;2024-02-23T03:29:40;5.30;99.90
26990;DHT22;14537;47.788;11.858;2024-02-23T03:32:06;5.30;99.90
26990;DHT22;14537;47.788;11.858;2024-02-23T03:34:31;5.30;99.90
26990;DHT22;14537;47.788;11.858;2024-02-23T03:36:57;5.30;99.90
26990;DHT22;14537;47.788;11.858;2024-02-23T03:39:28;5.20;99.90
26990;DHT22;14537;47.788;11.858;2024-02-23T03:41:54;5.30;99.90
26990;DHT22;14537;47.788;11.858;2024-02-23T03:44:19;5.30;99.90
26990;DHT22;14537;47.788;11.858;2024-02-23T03:46:45;5.30;99.90
26990;DHT22;14537;47.788;11.858;2024-02-23T03:49:11;5.20;99.90
26990;DHT22;14537;47.788;11.858;2024-02-23T03:51:37;5.10;99.90
26990;DHT22;14537;47.788;11.858;2024-02-23T03:54:05;5.10;99.90
26990;DHT22;14537;47.788;11.858;2024-02-23T03:56:38;5.10;99.90
26990;DHT22;14537;47.788;11.858;2024-02-23T03:59:04;5.10;99.90
26990;DHT22;14537;47.788;11.858;2024-02-23T04:01:30;5.10;99.90
26990;DHT22;14537;47.788;11.858;2024-02-23T04:03:55;5.00;99.90
26990;DHT22;14537;47.788;11.858;2024-02-23T04:06:21;5.00;99.90
26990;DHT22;14537;47.788;11.858;2024-02-23T04:08:46;4.90;99.90
26990;DHT22;14537;47.788;11.858;2024-02-23T04:11:15;4.90;99.90
26990;DHT22;14537;47.788;11.858;2024-02-23T04:13:40;4.90;99.90
26990;DHT22;14537;47.788;11.858;2024-02-23T04:16:06;4.80;99.90
26990;DHT22;14537;47.788;11.858;2024-02-23T04:18:31;4.80;99.90
26990;DHT22;14537;47.788;11.858;2024-02-23T04:20:57;4.80;99.90
26990;DHT22;14537;47.788;11.858;2024-02-23T04:23:23;4.70;99.90
26990;DHT22;14537;47.788;11.858;2024-02-23T04:25:48;4.70;99.90
26990;DHT22;14537;47.788;11.858;2024-02-23T04:28:16;4.60;99.90
26990;DHT22;14537;47.788;11.858;2024-02-23T04:30:41;4.60;99.90
26990;DHT22;14537;47.788;11.858;2024-02-23T04:33:07;4.60;99.90
26990;DHT22;14537;47.788;11.858;2024-02-23T04:35:32;4.60;99.90
26990;DHT22;14537;47.788;11.858;2024-02-23T04:37:58;4.50;99.90
26990;DHT22;14537;47.788;11.858;2024-02-23T04:40:24;4.40;99.90
26990;DHT22;14537;47.788;11.858;2024-02-23T04:42:49;4.40;99.90
26990;DHT22;14537;47.788;11.858;2024-02-23T04:45:15;4.40;99.90
26990;DHT22;14537;47.788;11.858;2024-02-23T04:47:40;4.30;99.90
26990;DHT22;14537;47.788;11.858;2024-02-23T04:50:06;4.20;99.90
26990;DHT22;14537;47.788;11.858;2024-02-23T04:52:32;4.20;99.90
26990;DHT22;14537;47.788;11.858;2024-02-23T04:54:58;4.20;99.90
26990;DHT22;14537;47.788;11.858;2024-02-23T04:57:23;4.20;99.90
26990;DHT22;14537;47.788;11.858;2024-02-23T04:59:49;4.20;99.90
26990;DHT22;14537;47.788;11.858;2024-02-23T05:02:14;4.20;99.90
26990;DHT22;14537;47.788;11.858;2024-02-23T05:04:41;4.10;99.90
26990;DHT22;14537;47.788;11.858;2024-02-23T05:07:07;4.10;99.90
26990;DHT22;14537;47.788;11.858;2024-02-23T05:09:32;4.10;99.90
26990;DHT22;14537;47.788;11.858;2024-02-23T05:11:58;4.10;99.90
26990;DHT22;14537;47.788;11.858;2024-02-23T05:14:23;4.10;99.90
26990;DHT22;14537;47.788;11.858;2024-02-23T05:16:49;4.00;99.90
26990;DHT22;14537;47.788;11.858;2024-02-23T05:19:15;4.00;99.90
26990;DHT22;14537;47.788;11.858;2024-02-23T05:21:40;3.90;99.90
26990;DHT22;14537;47.788;11.858;2024-02-23T05:24:06;3.90;99.90
26990;DHT22;14537;47.788;11.858;2024-02-23T05:26:31;3.90;99.90
26990;DHT22;14537;47.788;11.858;2024-02-23T05:28:57;4.00;99.90
26990;DHT22;14537;47.788;11.858;2024-02-23T05:31:43;4.00;99.90
26990;DHT22;14537;47.788;11.858;2024-02-23T05:34:09;4.00;99.90
26990;DHT22;14537;47.788;11.858;2024-02-23T05:36:35;3.80;99.90
26990;DHT22;14537;47.788;11.858;2024-02-23T05:39:00;3.70;99.90
26990;DHT22;14537;47.788;11.858;2024-02-23T05:41:26;3.60;99.90
26990;DHT22;14537;47.788;11.858;2024-02-23T05:43:51;3.50;99.90
26990;DHT22;14537;47.788;11.858;2024-02-23T05:46:17;3.50;99.90
26990;DHT22;14537;47.788;11.858;2024-02-23T05:48:43;3.40;99.90
26990;DHT22;14537;47.788;11.858;2024-02-23T05:51:08;3.40;99.90
26990;DHT22;14537;47.788;11.858;2024-02-23T05:53:34;3.40;99.90
26990;DHT22;14537;47.788;11.858;2024-02-23T05:56:00;3.40;99.90
26990;DHT22;14537;47.788;11.858;2024-02-23T05:58:25;3.40;99.90
26990;DHT22;14537;47.788;11.858;2024-02-23T06:00:51;3.30;99.90
26990;DHT22;14537;47.788;11.858;2024-02-23T06:03:17;3.40;99.90
26990;DHT22;14537;47.788;11.858;2024-02-23T06:05:43;3.40;99.90
26990;DHT22;14537;47.788;11.858;2024-02-23T06:08:09;3.30;99.90
26990;DHT22;14537;47.788;11.858;2024-02-23T06:10:34;3.30;99.90
26990;DHT22;14537;47.788;11.858;2024-02-23T06:13:00;3.30;99.90
26990;DHT22;14537;47.788;11.858;2024-02-23T06:15:26;3.30;99.90
26990;DHT22;14537;47.788;11.858;2024-02-23T06:17:51;3.20;99.90
26990;DHT22;14537;47.788;11.858;2024-02-23T06:20:17;3.00;99.90
26990;DHT22;14537;47.788;11.858;2024-02-23T06:22:43;3.10;99.90
26990;DHT22;14537;47.788;11.858;2024-02-23T06:25:09;3.20;99.90
26990;DHT22;14537;47.788;11.858;2024-02-23T06:27:35;3.30;99.90
26990;DHT22;14537;47.788;11.858;2024-02-23T06:30:01;3.30;99.90
26990;DHT22;14537;47.788;11.858;2024-02-23T06:32:27;3.30;99.90
26990;DHT22;14537;47.788;11.858;2024-02-23T06:34:52;3.30;99.90
26990;DHT22;14537;47.788;11.858;2024-02-23T06:37:18;3.20;99.90
26990;DHT22;14537;47.788;11.858;2024-02-23T06:39:43;3.10;99.90
26990;DHT22;14537;47.788;11.858;2024-02-23T06:42:10;3.20;99.90
26990;DHT22;14537;47.788;11.858;2024-02-23T06:44:35;3.10;99.90
26990;DHT22;14537;47.788;11.858;2024-02-23T06:47:01;3.00;99.90
26990;DHT22;14537;47.788;11.858;2024-02-23T06:49:26;3.00;99.90
26990;DHT22;14537;47.788;11.858;2024-02-23T06:51:52;2.90;99.90
26990;DHT22;14537;47.788;11.858;2024-02-23T06:54:18;3.00;99.90
26990;DHT22;14537;47.788;11.858;2024-02-23T06:56:43;2.70;99.90
26990;DHT22;14537;47.788;11.858;2024-02-23T06:59:09;2.60;99.90
26990;DHT22;14537;47.788;11.858;2024-02-23T07:01:34;2.50;99.90
26990;DHT22;14537;47.788;11.858;2024-02-23T07:04:02;2.40;99.90
26990;DHT22;14537;47.788;11.858;2024-02-23T07:06:27;2.50;99.90
26990;DHT22;14537;47.788;11.858;2024-02-23T07:08:56;2.60;99.90
26990;DHT22;14537;47.788;11.858;2024-02-23T07:11:22;2.70;99.90
26990;DHT22;14537;47.788;11.858;2024-02-23T07:13:47;2.70;99.90
26990;DHT22;14537;47.788;11.858;2024-02-23T07:16:13;2.70;99.90
26990;DHT22;14537;47.788;11.858;2024-02-23T07:18:40;2.70;99.90
26990;DHT22;14537;47.788;11.858;2024-02-23T07:21:06;2.70;99.90
26990;DHT22;14537;47.788;11.858;2024-02-23T07:23:32;2.80;99.90
26990;DHT22;14537;47.788;11.858;2024-02-23T07:25:57;2.80;99.90
26990;DHT22;14537;47.788;11.858;2024-02-23T07:28:23;2.80;99.90
26990;DHT22;14537;47.788;11.858;2024-02-23T07:30:48;2.80;99.90
26990;DHT22;14537;47.788;11.858;2024-02-23T07:33:14;2.90;99.90
26990;DHT22;14537;47.788;11.858;2024-02-23T07:35:40;2.80;99.90
26990;DHT22;14537;47.788;11.858;2024-02-23T07:38:05;2.80;99.90
26990;DHT22;14537;47.788;11.858;2024-02-23T07:40:31;2.90;99.90
26990;DHT22;14537;47.788;11.858;2024-02-23T07:42:59;2.90;99.90
26990;DHT22;14537;47.788;11.858;2024-02-23T07:45:25;2.80;99.90
26990;DHT22;14537;47.788;11.858;2024-02-23T07:47:51;2.90;99.90
26990;DHT22;14537;47.788;11.858;2024-02-23T07:50:17;2.80;99.90
26990;DHT22;14537;47.788;11.858;2024-02-23T07:52:44;2.80;99.90
26990;DHT22;14537;47.788;11.858;2024-02-23T07:55:09;2.90;99.90
26990;DHT22;14537;47.788;11.858;2024-02-23T07:57:35;2.90;99.90
26990;DHT22;14537;47.788;11.858;2024-02-23T08:00:01;2.80;99.90
26990;DHT22;14537;47.788;11.858;2024-02-23T08:02:29;2.80;99.90
26990;DHT22;14537;47.788;11.858;2024-02-23T08:04:54;2.80;99.90
26990;DHT22;14537;47.788;11.858;2024-02-23T08:07:20;2.80;99.90
26990;DHT22;14537;47.788;11.858;2024-02-23T08:09:46;2.70;99.90
26990;DHT22;14537;47.788;11.858;2024-02-23T08:12:11;2.70;99.90
26990;DHT22;14537;47.788;11.858;2024-02-23T08:14:39;2.70;99.90
26990;DHT22;14537;47.788;11.858;2024-02-23T08:17:04;2.70;99.90
26990;DHT22;14537;47.788;11.858;2024-02-23T08:19:30;2.70;99.90
26990;DHT22;14537;47.788;11.858;2024-02-23T08:21:58;2.60;99.90
26990;DHT22;14537;47.788;11.858;2024-02-23T08:24:23;2.60;99.90
26990;DHT22;14537;47.788;11.858;2024-02-23T08:26:49;2.70;99.90
26990;DHT22;14537;47.788;11.858;2024-02-23T08:29:14;2.70;99.90
26990;DHT22;14537;47.788;11.858;2024-02-23T08:31:40;2.70;99.90
26990;DHT22;14537;47.788;11.858;2024-02-23T08:34:06;2.70;99.90
26990;DHT22;14537;47.788;11.858;2024-02-23T08:36:32;2.70;99.90
26990;DHT22;14537;47.788;11.858;2024-02-23T08:38:57;2.80;99.90
26990;DHT22;14537;47.788;11.858;2024-02-23T08:41:23;2.80;99.90
26990;DHT22;14537;47.788;11.858;2024-02-23T08:43:48;2.80;99.90
26990;DHT22;14537;47.788;11.858;2024-02-23T08:46:15;2.80;99.90
26990;DHT22;14537;47.788;11.858;2024-02-23T08:48:41;2.80;99.90
26990;DHT22;14537;47.788;11.858;2024-02-23T08:51:06;2.80;99.90
26990;DHT22;14537;47.788;11.858;2024-02-23T08:53:32;2.90;99.90
26990;DHT22;14537;47.788;11.858;2024-02-23T08:55:57;3.00;99.90
26990;DHT22;14537;47.788;11.858;2024-02-23T08:58:23;3.00;99.90
26990;DHT22;14537;47.788;11.858;2024-02-23T09:00:48;3.00;99.90
26990;DHT22;14537;47.788;11.858;2024-02-23T09:03:14;3.00;99.90
26990;DHT22;14537;47.788;11.858;2024-02-23T09:05:40;3.00;99.90
26990;DHT22;14537;47.788;11.858;2024-02-23T09:08:06;2.90;99.90
26990;DHT22;14537;47.788;11.858;2024-02-23T09:10:32;2.90;99.90
26990;DHT22;14537;47.788;11.858;2024-02-23T09:12:57;2.90;99.90
26990;DHT22;14537;47.788;11.858;2024-02-23T09:15:23;2.90;99.90
26990;DHT22;14537;47.788;11.858;2024-02-23T09:17:48;2.90;99.90
26990;DHT22;14537;47.788;11.858;2024-02-23T09:20:14;2.80;99.90
26990;DHT22;14537;47.788;11.858;2024-02-23T09:22:40;2.90;99.90
26990;DHT22;14537;47.788;11.858;2024-02-23T09:25:06;2.90;99.90
26990;DHT22;14537;47.788;11.858;2024-02-23T09:27:32;2.90;99.90
26990;DHT22;14537;47.788;11.858;2024-02-23T09:29:57;2.90;99.90
26990;DHT22;14537;47.788;11.858;2024-02-23T09:32:24;2.70;99.90
26990;DHT22;14537;47.788;11.858;2024-02-23T09:34:49;2.70;99.90
26990;DHT22;14537;47.788;11.858;2024-02-23T09:37:15;2.70;99.90
26990;DHT22;14537;47.788;11.858;2024-02-23T09:39:41;2.60;99.90
26990;DHT22;14537;47.788;11.858;2024-02-23T09:42:10;2.50;99.90
26990;DHT22;14537;47.788;11.858;2024-02-23T09:44:37;2.70;99.90
26990;DHT22;14537;47.788;11.858;2024-02-23T09:47:03;2.70;99.90
26990;DHT22;14537;47.788;11.858;2024-02-23T09:49:38;2.70;99.90
26990;DHT22;14537;47.788;11.858;2024-02-23T09:52:07;2.70;99.90
26990;DHT22;14537;47.788;11.858;2024-02-23T09:54:33;2.70;99.90
26990;DHT22;14537;47.788;11.858;2024-02-23T09:57:00;2.70;99.90
26990;DHT22;14537;47.788;11.858;2024-02-23T09:59:26;2.70;99.90
26990;DHT22;14537;47.788;11.858;2024-02-23T10:01:53;2.60;99.90
26990;DHT22;14537;47.788;11.858;2024-02-23T10:04:19;2.50;99.90
26990;DHT22;14537;47.788;11.858;2024-02-23T10:06:45;2.30;99.90
26990;DHT22;14537;47.788;11.858;2024-02-23T10:09:10;2.20;99.90
26990;DHT22;14537;47.788;11.858;2024-02-23T10:11:38;2.20;99.90
26990;DHT22;14537;47.788;11.858;2024-02-23T10:14:04;2.20;99.90
26990;DHT22;14537;47.788;11.858;2024-02-23T10:16:30;2.10;99.90
26990;DHT22;14537;47.788;11.858;2024-02-23T10:18:57;2.20;99.90
26990;DHT22;14537;47.788;11.858;2024-02-23T10:21:23;2.20;99.90
26990;DHT22;14537;47.788;11.858;2024-02-23T10:23:50;2.30;99.90
26990;DHT22;14537;47.788;11.858;2024-02-23T10:26:17;2.30;99.90
26990;DHT22;14537;47.788;11.858;2024-02-23T10:28:45;2.40;99.90
26990;DHT22;14537;47.788;11.858;2024-02-23T10:31:12;2.30;99.90
26990;DHT22;14537;47.788;11.858;2024-02-23T10:33:38;2.20;99.90
26990;DHT22;14537;47.788;11.858;2024-02-23T10:36:05;2.30;99.90
26990;DHT22;14537;47.788;11.858;2024-02-23T10:38:35;2.30;99.90
26990;DHT22;14537;47.788;11.858;2024-02-23T10:41:05;2.40;99.90
26990;DHT22;14537;47.788;11.858;2024-02-23T10:43:36;2.40;99.90
26990;DHT22;14537;47.788;11.858;2024-02-23T10:46:03;2.40;99.90
26990;DHT22;14537;47.788;11.858;2024-02-23T10:48:33;2.30;99.90
26990;DHT22;14537;47.788;11.858;2024-02-23T10:51:00;2.20;99.90
26990;DHT22;14537;47.788;11.858;2024-02-23T10:53:26;2.30;99.90
26990;DHT22;14537;47.788;11.858;2024-02-23T10:55:56;2.20;99.90
26990;DHT22;14537;47.788;11.858;2024-02-23T10:58:25;2.20;99.90
26990;DHT22;14537;47.788;11.858;2024-02-23T11:00:51;2.30;99.90
26990;DHT22;14537;47.788;11.858;2024-02-23T11:03:17;2.30;99.90
26990;DHT22;14537;47.788;11.858;2024-02-23T11:05:47;2.30;99.90
26990;DHT22;14537;47.788;11.858;2024-02-23T11:08:13;2.40;99.90
26990;DHT22;14537;47.788;11.858;2024-02-23T11:10:49;2.40;99.90
26990;DHT22;14537;47.788;11.858;2024-02-23T11:13:18;2.40;99.90
26990;DHT22;14537;47.788;11.858;2024-02-23T11:15:43;2.50;99.90
26990;DHT22;14537;47.788;11.858;2024-02-23T11:18:41;2.40;99.90
26990;DHT22;14537;47.788;11.858;2024-02-23T11:21:09;2.30;99.90
26990;DHT22;14537;47.788;11.858;2024-02-23T11:23:44;2.30;99.90
26990;DHT22;14537;47.788;11.858;2024-02-23T11:26:11;2.40;99.90
26990;DHT22;14537;47.788;11.858;2024-02-23T11:28:46;2.40;99.90
26990;DHT22;14537;47.788;11.858;2024-02-23T11:31:19;2.50;99.90
26990;DHT22;14537;47.788;11.858;2024-02-23T11:33:48;2.60;99.90
26990;DHT22;14537;47.788;11.858;2024-02-23T11:36:43;2.50;99.90
26990;DHT22;14537;47.788;11.858;2024-02-23T11:39:10;2.60;99.90
26990;DHT22;14537;47.788;11.858;2024-02-23T11:41:38;2.60;99.90
26990;DHT22;14537;47.788;11.858;2024-02-23T11:44:04;2.60;99.90
26990;DHT22;14537;47.788;11.858;2024-02-23T11:46:32;2.50;99.90
26990;DHT22;14537;47.788;11.858;2024-02-23T11:48:58;2.60;99.90
26990;DHT22;14537;47.788;11.858;2024-02-23T11:51:25;2.50;99.90
26990;DHT22;14537;47.788;11.858;2024-02-23T11:53:55;2.60;99.90
26990;DHT22;14537;47.788;11.858;2024-02-23T11:56:23;2.60;99.90
26990;DHT22;14537;47.788;11.858;2024-02-23T11:58:50;2.60;99.90
26990;DHT22;14537;47.788;11.858;2024-02-23T12:01:15;2.50;99.90
26990;DHT22;14537;47.788;11.858;2024-02-23T12:03:41;2.60;99.90
26990;DHT22;14537;47.788;11.858;2024-02-23T12:06:10;2.60;99.90
26990;DHT22;14537;47.788;11.858;2024-02-23T12:08:35;2.60;99.90
26990;DHT22;14537;47.788;11.858;2024-02-23T12:11:08;2.60;99.90
26990;DHT22;14537;47.788;11.858;2024-02-23T12:13:35;2.70;99.90
26990;DHT22;14537;47.788;11.858;2024-02-23T12:16:01;2.70;99.90
26990;DHT22;14537;47.788;11.858;2024-02-23T12:18:27;2.60;99.90
26990;DHT22;14537;47.788;11.858;2024-02-23T12:21:02;2.70;99.90
26990;DHT22;14537;47.788;11.858;2024-02-23T12:23:40;2.70;99.90
26990;DHT22;14537;47.788;11.858;2024-02-23T12:26:06;2.70;99.90
26990;DHT22;14537;47.788;11.858;2024-02-23T12:28:32;2.70;99.90
26990;DHT22;14537;47.788;11.858;2024-02-23T12:31:03;2.60;99.90
26990;DHT22;14537;47.788;11.858;2024-02-23T12:33:31;2.70;99.90
26990;DHT22;14537;47.788;11.858;2024-02-23T12:35:58;2.60;99.90
26990;DHT22;14537;47.788;11.858;2024-02-23T12:38:24;2.60;99.90
26990;DHT22;14537;47.788;11.858;2024-02-23T12:40:50;2.70;99.90
26990;DHT22;14537;47.788;11.858;2024-02-23T12:43:16;2.70;99.90
26990;DHT22;14537;47.788;11.858;2024-02-23T12:45:42;2.70;99.90
26990;DHT22;14537;47.788;11.858;2024-02-23T12:48:10;2.70;99.90
26990;DHT22;14537;47.788;11.858;2024-02-23T12:50:35;2.70;99.90
26990;DHT22;14537;47.788;11.858;2024-02-23T12:53:02;2.80;99.90
26990;DHT22;14537;47.788;11.858;2024-02-23T12:55:28;2.80;99.90
26990;DHT22;14537;47.788;11.858;2024-02-23T12:57:53;2.90;99.90
26990;DHT22;14537;47.788;11.858;2024-02-23T13:00:19;3.00;99.90
26990;DHT22;14537;47.788;11.858;2024-02-23T13:02:44;3.00;99.90
26990;DHT22;14537;47.788;11.858;2024-02-23T13:05:11;3.00;99.90
26990;DHT22;14537;47.788;11.858;2024-02-23T13:07:36;3.00;99.90
26990;DHT22;14537;47.788;11.858;2024-02-23T13:10:04;3.00;99.90
26990;DHT22;14537;47.788;11.858;2024-02-23T13:12:30;3.00;99.90
26990;DHT22;14537;47.788;11.858;2024-02-23T13:14:55;3.00;99.90
26990;DHT22;14537;47.788;11.858;2024-02-23T13:17:21;3.00;99.90
26990;DHT22;14537;47.788;11.858;2024-02-23T13:19:46;3.00;99.90
26990;DHT22;14537;47.788;11.858;2024-02-23T13:22:12;3.00;99.90
26990;DHT22;14537;47.788;11.858;2024-02-23T13:24:37;3.00;99.90
26990;DHT22;14537;47.788;11.858;2024-02-23T13:27:05;3.00;99.90
26990;DHT22;14537;47.788;11.858;2024-02-23T13:29:31;3.00;99.90
26990;DHT22;14537;47.788;11.858;2024-02-23T13:31:57;3.00;99.90
26990;DHT22;14537;47.788;11.858;2024-02-23T13:34:22;3.00;99.90
26990;DHT22;14537;47.788;11.858;2024-02-23T13:36:48;3.00;99.90
26990;DHT22;14537;47.788;11.858;2024-02-23T13:39:15;3.00;99.90
26990;DHT22;14537;47.788;11.858;2024-02-23T13:41:41;3.00;99.90
26990;DHT22;14537;47.788;11.858;2024-02-23T13:44:06;3.00;99.90
26990;DHT22;14537;47.788;11.858;2024-02-23T13:46:35;2.90;99.90
26990;DHT22;14537;47.788;11.858;2024-02-23T13:49:05;3.00;99.90
26990;DHT22;14537;47.788;11.858;2024-02-23T13:51:31;3.00;99.90
26990;DHT22;14537;47.788;11.858;2024-02-23T13:53:57;3.00;99.90
26990;DHT22;14537;47.788;11.858;2024-02-23T13:56:23;3.00;99.90
26990;DHT22;14537;47.788;11.858;2024-02-23T13:58:48;3.10;99.90
26990;DHT22;14537;47.788;11.858;2024-02-23T14:01:15;3.00;99.90
26990;DHT22;14537;47.788;11.858;2024-02-23T14:03:40;3.10;99.90
26990;DHT22;14537;47.788;11.858;2024-02-23T14:06:06;3.10;99.90
26990;DHT22;14537;47.788;11.858;2024-02-23T14:08:32;3.20;99.90
26990;DHT22;14537;47.788;11.858;2024-02-23T14:11:00;3.20;99.90
26990;DHT22;14537;47.788;11.858;2024-02-23T14:13:26;3.20;99.90
26990;DHT22;14537;47.788;11.858;2024-02-23T14:15:52;3.20;99.90
26990;DHT22;14537;47.788;11.858;2024-02-23T14:18:17;3.10;99.90
26990;DHT22;14537;47.788;11.858;2024-02-23T14:20:43;3.10;99.90
26990;DHT22;14537;47.788;11.858;2024-02-23T14:23:09;3.10;99.90
26990;DHT22;14537;47.788;11.858;2024-02-23T14:25:34;3.10;99.90
26990;DHT22;14537;47.788;11.858;2024-02-23T14:28:00;3.10;99.90
26990;DHT22;14537;47.788;11.858;2024-02-23T14:30:25;3.00;99.90
26990;DHT22;14537;47.788;11.858;2024-02-23T14:32:51;3.00;99.90
26990;DHT22;14537;47.788;11.858;2024-02-23T14:35:17;3.00;99.90
26990;DHT22;14537;47.788;11.858;2024-02-23T14:37:42;3.00;99.90
26990;DHT22;14537;47.788;11.858;2024-02-23T14:40:08;3.00;99.90
26990;DHT22;14537;47.788;11.858;2024-02-23T14:42:34;3.00;99.90
26990;DHT22;14537;47.788;11.858;2024-02-23T14:45:00;2.90;99.90
26990;DHT22;14537;47.788;11.858;2024-02-23T14:47:25;2.90;99.90
26990;DHT22;14537;47.788;11.858;2024-02-23T14:49:51;2.90;99.90
26990;DHT22;14537;47.788;11.858;2024-02-23T14:52:16;2.90;99.90
26990;DHT22;14537;47.788;11.858;2024-02-23T14:54:42;2.90;99.90
26990;DHT22;14537;47.788;11.858;2024-02-23T14:57:08;2.90;99.90
26990;DHT22;14537;47.788;11.858;2024-02-23T14:59:33;2.90;99.90
26990;DHT22;14537;47.788;11.858;2024-02-23T15:02:02;2.90;99.90
26990;DHT22;14537;47.788;11.858;2024-02-23T15:04:27;3.00;99.90
26990;DHT22;14537;47.788;11.858;2024-02-23T15:06:53;2.90;99.90
26990;DHT22;14537;47.788;11.858;2024-02-23T15:09:18;2.90;99.90
26990;DHT22;14537;47.788;11.858;2024-02-23T15:11:44;2.90;99.90
26990;DHT22;14537;47.788;11.858;2024-02-23T15:14:10;2.90;99.90
26990;DHT22;14537;47.788;11.858;2024-02-23T15:16:36;2.80;99.90
26990;DHT22;14537;47.788;11.858;2024-02-23T15:19:02;2.80;99.90
26990;DHT22;14537;47.788;11.858;2024-02-23T15:21:27;2.80;99.90
26990;DHT22;14537;47.788;11.858;2024-02-23T15:23:53;2.80;99.90